Time;durP1;ratioP1;P1;durP2;ratioP2;P2;SDS_P1;SDS_P2;PMS_P1;PMS_P2;Temp;Humidity;BMP_temperature;BMP_pressure;BME280_temperature;BME280_humidity;BME280_pressure;Samples;Min_cycle;Max_cycle;Signal;HPM_P1;HPM_P2
2023/05/28 00:00:17;;;;;;;20.35;11.18;;;10.40;99.90;;;-144.05;70.94;56836.09;5091560;28;20043;-79
2023/05/28 00:02:44;;;;;;;21.38;10.25;;;10.40;99.90;;;-144.05;70.76;56814.84;5091436;28;20031;-79
2023/05/28 00:05:09;;;;;;;20.60;9.90;;;10.30;99.90;;;-144.05;70.77;56846.72;5091350;28;20020;-79
2023/05/28 00:07:35;;;;;;;20.23;10.32;;;10.30;99.90;;;-144.05;71.15;56848.84;5091383;28;20031;-80
2023/05/28 00:10:02;;;;;;;14.98;8.95;;;10.20;99.90;;;-144.05;71.18;56876.44;5091144;28;20449;-79
2023/05/28 00:12:28;;;;;;;18.52;9.90;;;10.20;99.90;;;-144.05;71.63;56850.97;5091301;28;20024;-79
2023/05/28 00:14:54;;;;;;;21.60;10.85;;;10.10;99.90;;;-144.05;71.42;56831.84;5091360;28;20101;-79
2023/05/28 00:17:20;;;;;;;15.85;10.00;;;10.10;99.90;;;-144.05;71.95;56848.84;5073520;28;20028;-81
2023/05/28 00:19:46;;;;;;;22.48;11.63;;;10.10;99.90;;;-144.05;72.32;56855.22;5091916;28;20032;-79
2023/05/28 00:22:12;;;;;;;17.35;10.20;;;10.20;99.90;;;-144.05;71.99;56850.97;5091329;28;20024;-79
2023/05/28 00:24:38;;;;;;;20.30;11.27;;;10.10;99.90;;;-144.05;72.34;56853.09;5091524;28;20061;-80
2023/05/28 00:27:04;;;;;;;17.55;10.18;;;10.10;99.90;;;-144.05;72.24;56861.56;5073321;28;20028;-79
2023/05/28 00:29:30;;;;;;;14.00;9.57;;;10.00;99.90;;;-144.05;72.04;56844.59;5091309;28;20031;-79
2023/05/28 00:31:56;;;;;;;17.85;11.00;;;9.90;99.90;;;-144.05;72.37;56853.09;5073644;28;20024;-79
2023/05/28 00:34:24;;;;;;;23.65;11.38;;;9.90;99.90;;;-144.05;72.63;56853.09;5073176;28;20218;-80
2023/05/28 00:36:50;;;;;;;21.27;10.38;;;9.80;99.90;;;-144.05;72.68;56831.84;5073393;28;20024;-80
2023/05/28 00:39:18;;;;;;;20.52;10.00;;;9.90;99.90;;;-144.05;72.65;56853.09;5095083;28;20034;-81
2023/05/28 00:41:45;;;;;;;17.02;9.52;;;9.70;99.90;;;-144.05;72.79;56838.22;5076961;28;20028;-77
2023/05/28 00:44:12;;;;;;;20.05;10.32;;;9.60;99.90;;;-144.05;72.97;56865.81;5076660;28;20036;-80
2023/05/28 00:46:45;;;;;;;18.27;10.20;;;9.60;99.90;;;-144.05;72.80;56848.84;5094974;28;20031;-77
2023/05/28 00:49:13;;;;;;;16.33;9.55;;;9.60;99.90;;;-144.05;73.92;56846.72;5094855;28;20035;-78
2023/05/28 00:51:40;;;;;;;18.65;10.45;;;9.50;99.90;;;-144.05;73.77;56853.09;5094807;28;20096;-79
2023/05/28 00:54:07;;;;;;;16.88;9.60;;;9.60;99.90;;;-144.05;73.84;56848.84;5094700;28;20016;-79
2023/05/28 00:56:34;;;;;;;15.73;9.60;;;9.60;99.90;;;-144.05;74.16;56821.22;5094524;28;20078;-79
2023/05/28 00:59:01;;;;;;;19.77;9.93;;;9.60;99.90;;;-144.05;74.21;56859.47;5076586;28;20142;-79
2023/05/28 01:01:29;;;;;;;19.25;10.05;;;9.60;99.90;;;-144.05;74.43;56859.47;5076248;28;20055;-80
2023/05/28 01:03:55;;;;;;;18.85;9.90;;;9.50;99.90;;;-144.05;74.33;56842.47;5094458;28;20066;-80
2023/05/28 01:06:22;;;;;;;16.90;9.27;;;9.50;99.90;;;-144.05;74.21;56831.84;5094599;28;20146;-79
2023/05/28 01:08:51;;;;;;;22.23;12.18;;;9.50;99.90;;;-144.05;74.73;56825.47;5094420;28;20474;-79
2023/05/28 01:11:21;;;;;;;24.33;11.63;;;9.50;99.90;;;-144.05;74.74;56857.34;5094372;28;20035;-79
2023/05/28 01:13:49;;;;;;;21.20;11.38;;;9.50;99.90;;;-144.05;74.82;56842.47;5094278;28;20492;-79
2023/05/28 01:16:15;;;;;;;18.45;10.68;;;9.40;99.90;;;-144.05;74.98;56848.84;5094205;28;20035;-79
2023/05/28 01:18:44;;;;;;;23.63;10.32;;;9.40;99.90;;;-144.05;75.11;56842.47;5095139;28;20032;-81
2023/05/28 01:21:12;;;;;;;20.88;9.80;;;9.40;99.90;;;-144.05;75.45;56816.97;5076504;28;20063;-79
2023/05/28 01:23:44;;;;;;;22.33;9.55;;;9.40;99.90;;;-144.05;75.73;56861.56;5094220;28;20028;-79
2023/05/28 01:26:13;;;;;;;15.75;9.35;;;9.30;99.90;;;-144.05;76.02;56844.59;5092865;28;20036;-79
2023/05/28 01:28:44;;;;;;;18.88;8.75;;;9.40;99.90;;;-144.05;76.13;56850.97;5076070;28;20032;-79
2023/05/28 01:31:12;;;;;;;14.48;9.18;;;9.30;99.90;;;-144.05;76.29;56842.47;5075927;28;20031;-79
2023/05/28 01:33:41;;;;;;;22.05;9.82;;;9.30;99.90;;;-144.05;76.36;56838.22;5093882;28;20099;-79
2023/05/28 01:36:37;;;;;;;15.60;9.45;;;9.40;99.90;;;-144.05;76.57;56842.47;5094009;28;20020;-80
2023/05/28 01:39:05;;;;;;;16.38;9.27;;;9.40;99.90;;;-144.05;76.70;56870.06;5093761;28;20429;-79
2023/05/28 01:41:32;;;;;;;15.68;9.20;;;9.40;99.90;;;-144.05;76.33;56848.84;5093721;28;20481;-79
2023/05/28 01:43:59;;;;;;;14.40;8.73;;;9.30;99.90;;;-144.05;76.52;56853.09;5093759;28;20067;-81
2023/05/28 01:46:27;;;;;;;15.85;8.80;;;9.20;99.90;;;-144.05;76.42;56861.56;5093734;28;20027;-80
2023/05/28 01:48:53;;;;;;;17.20;9.30;;;9.10;99.90;;;-144.05;76.49;56846.72;5092939;28;20024;-79
2023/05/28 01:51:24;;;;;;;16.13;8.23;;;9.00;99.90;;;-144.05;76.66;56861.56;5093376;28;20035;-81
2023/05/28 01:53:50;;;;;;;13.07;8.15;;;9.00;99.90;;;-144.05;76.86;56850.97;5077327;28;20024;-80
2023/05/28 01:56:16;;;;;;;16.15;8.40;;;9.00;99.90;;;-144.05;76.86;56850.97;5094719;28;20028;-82
2023/05/28 01:58:42;;;;;;;16.30;8.85;;;9.00;99.90;;;-144.05;76.59;56846.72;5093222;28;20027;-79
2023/05/28 02:01:32;;;;;;;18.23;9.55;;;8.90;99.90;;;-144.05;76.85;56844.59;5093931;28;20076;-79
2023/05/28 02:04:00;;;;;;;13.68;8.25;;;8.90;99.90;;;-144.05;76.96;56857.34;5093516;28;20039;-81
2023/05/28 02:06:31;;;;;;;17.73;9.20;;;8.90;99.90;;;-144.05;77.21;56857.34;5093590;28;20028;-79
2023/05/28 02:08:57;;;;;;;16.63;8.57;;;8.80;99.90;;;-144.05;76.96;56855.22;5093359;28;20046;-79
2023/05/28 02:11:23;;;;;;;17.48;8.85;;;8.80;99.90;;;-144.05;77.04;56833.97;5093196;28;20020;-79
2023/05/28 02:13:49;;;;;;;18.05;8.80;;;8.70;99.90;;;-144.05;76.95;56844.59;5075054;28;20039;-79
2023/05/28 02:16:17;;;;;;;15.77;9.25;;;8.60;99.90;;;-144.05;76.85;56853.09;5093234;28;20024;-80
2023/05/28 02:18:49;;;;;;;18.45;9.65;;;8.60;99.90;;;-144.05;76.96;56855.22;5074790;28;20101;-80
2023/05/28 02:21:17;;;;;;;21.55;10.35;;;8.60;99.90;;;-144.05;76.78;56844.59;5093082;28;20099;-79
2023/05/28 02:23:49;;;;;;;20.55;10.80;;;8.60;99.90;;;-144.05;77.17;56838.22;5093017;28;20397;-79
2023/05/28 02:26:15;;;;;;;19.02;9.90;;;8.50;99.90;;;-144.05;76.89;56865.81;5093163;28;20028;-80
2023/05/28 02:28:44;;;;;;;15.60;8.93;;;8.50;99.90;;;-144.05;77.14;56848.84;5074495;28;20566;-79
2023/05/28 02:31:11;;;;;;;22.95;10.65;;;8.50;99.90;;;-144.05;77.38;56861.56;5092763;28;20028;-79
2023/05/28 02:33:39;;;;;;;18.55;9.60;;;8.50;99.90;;;-144.05;77.70;56861.56;5092698;28;20051;-80
2023/05/28 02:36:06;;;;;;;16.85;9.43;;;8.50;99.90;;;-144.05;77.94;56853.09;5092854;28;20020;-79
2023/05/28 02:38:32;;;;;;;16.73;9.60;;;8.40;99.90;;;-144.05;77.95;56870.06;5109869;28;20430;-80
2023/05/28 02:40:58;;;;;;;16.83;9.52;;;8.40;99.90;;;-144.05;77.99;56836.09;5113347;28;20081;-81
2023/05/28 02:43:24;;;;;;;16.77;8.80;;;8.40;99.90;;;-144.05;77.58;56870.06;5112618;28;20036;-83
2023/05/28 02:45:49;;;;;;;16.52;9.43;;;8.40;99.90;;;-144.05;77.88;56861.56;5111532;28;20039;-81
2023/05/28 02:48:15;;;;;;;16.75;9.13;;;8.40;99.90;;;-144.05;77.77;56833.97;5110282;28;20032;-83
2023/05/28 02:50:41;;;;;;;16.63;8.30;;;8.40;99.90;;;-144.05;77.81;56844.59;5105889;28;20028;-83
2023/05/28 02:53:07;;;;;;;15.43;8.45;;;8.40;99.90;;;-144.05;77.83;56857.34;5077363;28;20110;-79
2023/05/28 02:55:33;;;;;;;14.68;8.65;;;8.30;99.90;;;-144.05;77.96;56853.09;5092325;28;20027;-78
2023/05/28 02:57:59;;;;;;;17.55;9.10;;;8.30;99.90;;;-144.05;77.87;56846.72;5092087;28;20555;-80
2023/05/28 03:00:25;;;;;;;13.45;8.48;;;8.20;99.90;;;-144.05;78.20;56857.34;5092363;28;20528;-79
2023/05/28 03:02:51;;;;;;;15.23;8.48;;;8.20;99.90;;;-144.05;78.22;56842.47;5092482;28;20115;-79
2023/05/28 03:05:17;;;;;;;13.02;7.65;;;8.10;99.90;;;-144.05;78.41;56863.69;5074165;28;20497;-79
2023/05/28 03:07:43;;;;;;;14.63;9.13;;;8.10;99.90;;;-144.05;78.40;56865.81;5092233;28;20036;-79
2023/05/28 03:10:09;;;;;;;22.42;9.15;;;8.10;99.90;;;-144.05;78.74;56861.56;5092134;28;20024;-80
2023/05/28 03:12:36;;;;;;;19.20;9.25;;;8.10;99.90;;;-144.05;78.42;56833.97;5093181;28;20024;-81
2023/05/28 03:15:02;;;;;;;18.83;9.07;;;8.20;99.90;;;-144.05;78.49;56844.59;5076100;28;20028;-81
2023/05/28 03:17:28;;;;;;;17.65;9.10;;;8.20;99.90;;;-144.05;78.75;56874.31;5092366;28;20028;-82
2023/05/28 03:19:53;;;;;;;13.48;8.23;;;8.10;99.90;;;-144.05;78.85;56857.34;5091921;28;20391;-80
2023/05/28 03:22:20;;;;;;;12.73;8.77;;;8.10;99.90;;;-144.05;79.07;56848.84;5092122;28;20373;-79
2023/05/28 03:24:46;;;;;;;14.30;7.95;;;8.10;99.90;;;-144.05;78.92;56861.56;5073636;28;20450;-80
2023/05/28 03:27:12;;;;;;;16.38;8.75;;;8.10;99.90;;;-144.05;79.26;56865.81;5091905;28;20160;-80
2023/05/28 03:29:38;;;;;;;16.33;9.15;;;8.00;99.90;;;-144.05;79.14;56861.56;5090437;28;20078;-78
2023/05/28 03:32:04;;;;;;;18.15;8.90;;;7.90;99.90;;;-144.05;79.65;56833.97;5073667;28;20024;-79
2023/05/28 03:34:30;;;;;;;12.88;8.05;;;8.00;99.90;;;-144.05;79.40;56874.31;5073551;28;20024;-79
2023/05/28 03:36:56;;;;;;;14.65;8.02;;;8.00;99.90;;;-144.05;79.50;56874.31;5091749;28;20028;-79
2023/05/28 03:39:22;;;;;;;12.75;8.35;;;8.00;99.90;;;-144.05;79.46;56844.59;5091605;28;20069;-79
2023/05/28 03:41:49;;;;;;;18.48;9.25;;;8.00;99.90;;;-144.05;79.40;56861.56;5091625;28;20132;-79
2023/05/28 03:44:17;;;;;;;15.20;8.60;;;8.00;99.90;;;-144.05;79.47;56876.44;5073400;28;20028;-80
2023/05/28 03:46:43;;;;;;;14.32;8.43;;;8.00;99.90;;;-144.05;79.51;56836.09;5091634;28;20556;-80
2023/05/28 03:49:09;;;;;;;11.82;7.40;;;8.00;99.90;;;-144.05;78.97;56836.09;5090263;28;20350;-79
2023/05/28 03:51:36;;;;;;;13.10;7.57;;;8.00;99.90;;;-144.05;79.18;56867.94;5073322;28;20028;-79
2023/05/28 03:54:02;;;;;;;12.38;7.38;;;7.90;99.90;;;-144.05;79.26;56840.34;5073239;28;20024;-81
2023/05/28 03:56:29;;;;;;;13.77;7.70;;;7.90;99.90;;;-144.05;79.33;56867.94;5092820;22;20062;-81
2023/05/28 03:58:55;;;;;;;12.48;7.88;;;7.90;99.90;;;-144.05;79.26;56861.56;5069934;28;20029;-81
2023/05/28 04:01:21;;;;;;;15.98;8.30;;;7.90;99.90;;;-144.05;79.46;56853.09;5070275;28;20164;-82
2023/05/28 04:03:47;;;;;;;16.10;8.27;;;8.00;99.90;;;-144.05;79.60;56850.97;5071825;28;20501;-79
2023/05/28 04:06:12;;;;;;;16.40;8.52;;;8.10;99.90;;;-144.05;79.54;56876.44;5060691;28;20025;-80
2023/05/28 04:08:38;;;;;;;18.67;9.15;;;8.20;99.90;;;-144.05;79.40;56859.47;5069445;28;20430;-81
2023/05/28 04:11:04;;;;;;;13.95;8.75;;;8.20;99.90;;;-144.05;79.40;56827.59;5052650;28;20066;-81
2023/05/28 04:13:30;;;;;;;11.98;7.35;;;8.20;99.90;;;-144.05;79.23;56842.47;5070036;28;20024;-82
2023/05/28 04:15:56;;;;;;;15.88;7.60;;;8.20;99.90;;;-144.05;79.56;56846.72;5071269;28;20083;-83
2023/05/28 04:18:22;;;;;;;12.90;7.78;;;8.20;99.90;;;-144.05;79.22;56855.22;5055930;28;20025;-80
2023/05/28 04:20:48;;;;;;;15.20;8.00;;;8.20;99.90;;;-144.05;79.56;56861.56;5071272;28;20083;-79
2023/05/28 04:23:13;;;;;;;11.68;7.53;;;8.30;99.90;;;-144.05;79.15;56859.47;5055329;28;20127;-80
2023/05/28 04:25:39;;;;;;;14.38;7.72;;;8.40;99.90;;;-144.05;79.23;56855.22;5055538;28;20036;-80
2023/05/28 04:28:05;;;;;;;14.57;8.18;;;8.30;99.90;;;-144.05;79.00;56848.84;5055506;28;20028;-79
2023/05/28 04:30:31;;;;;;;13.18;7.68;;;8.40;99.90;;;-144.05;79.13;56846.72;5055817;28;20041;-82
2023/05/28 04:32:58;;;;;;;16.98;8.85;;;8.50;99.90;;;-144.05;79.15;56848.84;5056174;28;20052;-81
2023/05/28 04:35:23;;;;;;;14.73;8.48;;;8.60;99.90;;;-144.05;79.18;56829.72;5055288;28;20050;-81
2023/05/28 04:37:51;;;;;;;13.73;8.02;;;8.80;99.90;;;-144.05;78.67;56848.84;5055494;28;20032;-80
2023/05/28 04:40:17;;;;;;;9.43;7.30;;;8.90;99.90;;;-144.05;78.57;56821.22;5071027;28;20029;-80
2023/05/28 04:42:43;;;;;;;12.18;7.53;;;9.00;99.90;;;-144.05;78.53;56846.72;5055571;28;20028;-81
2023/05/28 04:45:10;;;;;;;12.68;7.78;;;9.10;99.90;;;-144.05;78.70;56833.97;5055966;28;20055;-81
2023/05/28 04:47:37;;;;;;;12.43;7.38;;;9.10;99.90;;;-144.05;78.53;56838.22;5056252;28;20032;-82
2023/05/28 04:50:05;;;;;;;14.70;8.88;;;9.30;99.90;;;-144.05;79.07;56846.72;5071446;28;20052;-80
2023/05/28 04:52:35;;;;;;;14.93;7.88;;;9.50;99.90;;;-144.05;78.45;56853.09;5070890;28;20029;-82
2023/05/28 04:55:05;;;;;;;15.40;9.32;;;9.70;99.90;;;-144.05;78.38;56865.81;5055245;28;20028;-79
2023/05/28 04:57:32;;;;;;;15.25;8.43;;;9.90;99.90;;;-144.05;77.92;56882.81;5055347;28;20052;-79
2023/05/28 04:59:59;;;;;;;19.02;8.63;;;10.10;99.90;;;-144.05;77.79;56853.09;5055283;28;20506;-79
2023/05/28 05:02:25;;;;;;;17.92;9.38;;;10.20;99.90;;;-144.05;76.95;56838.22;5055318;28;20462;-80
2023/05/28 05:04:51;;;;;;;18.13;9.40;;;10.50;99.90;;;-144.05;76.65;56838.22;5070259;28;20086;-78
2023/05/28 05:07:17;;;;;;;13.90;8.35;;;10.70;99.90;;;-144.05;76.35;56831.84;5054814;28;20397;-80
2023/05/28 05:09:43;;;;;;;18.67;9.02;;;10.90;99.90;;;-144.05;75.77;56821.22;5054855;28;20060;-81
2023/05/28 05:12:09;;;;;;;16.48;8.30;;;11.20;99.90;;;-144.05;75.53;56842.47;5054947;28;20029;-79
2023/05/28 05:14:35;;;;;;;15.27;9.52;;;11.40;99.90;;;-144.05;74.75;56808.47;5054779;28;20029;-80
2023/05/28 05:17:06;;;;;;;13.38;8.27;;;11.60;99.90;;;-144.05;74.11;56840.34;5055215;28;20021;-79
2023/05/28 05:19:32;;;;;;;17.23;10.73;;;11.90;99.90;;;-144.05;73.23;56814.84;5054375;28;20116;-79
2023/05/28 05:21:58;;;;;;;16.17;11.13;;;12.20;99.90;;;-144.05;71.94;56836.09;5054789;28;20455;-79
2023/05/28 05:24:23;;;;;;;18.23;11.02;;;12.50;99.90;;;-144.05;70.51;56819.09;5053613;28;20037;-79
2023/05/28 05:26:49;;;;;;;21.60;11.70;;;12.60;99.90;;;-144.05;69.51;56810.59;5070409;28;20068;-79
2023/05/28 05:29:15;;;;;;;20.85;12.48;;;12.90;99.90;;;-144.05;68.31;56812.72;5054632;28;20055;-80
2023/05/28 05:31:41;;;;;;;23.85;14.55;;;13.20;99.90;;;-144.05;66.87;56819.09;5054372;28;20029;-79
2023/05/28 05:34:07;;;;;;;27.55;16.55;;;13.30;99.90;;;-144.05;65.33;56827.59;5052942;28;20502;-80
2023/05/28 05:36:32;;;;;;;24.88;15.77;;;13.60;99.90;;;-144.05;64.45;56833.97;5054005;28;20474;-79
2023/05/28 05:38:58;;;;;;;41.50;25.23;;;13.80;99.90;;;-144.05;62.31;56838.22;5054135;28;20054;-79
2023/05/28 05:41:25;;;;;;;40.33;25.20;;;13.90;99.90;;;-144.05;59.28;56846.72;5054480;28;20029;-79
2023/05/28 05:43:51;;;;;;;35.75;22.65;;;14.10;99.90;;;-144.05;58.88;56844.59;5076778;28;20021;-80
2023/05/28 05:46:17;;;;;;;40.78;25.65;;;14.20;99.90;;;-144.05;57.63;56850.97;5066094;28;20076;-80
2023/05/28 05:48:42;;;;;;;31.45;17.73;;;14.40;99.90;;;-144.05;56.90;56848.84;5056559;28;20098;-80
2023/05/28 05:51:08;;;;;;;25.67;15.85;;;14.60;99.90;;;-144.05;54.71;56833.97;5053846;28;20032;-81
2023/05/28 05:53:41;;;;;;;27.33;13.63;;;14.70;99.90;;;-144.05;55.04;56829.72;5054878;28;20028;-79
2023/05/28 05:56:08;;;;;;;20.77;11.23;;;14.90;99.90;;;-144.05;54.48;56819.09;5054263;28;20029;-80
2023/05/28 05:58:34;;;;;;;15.20;9.93;;;15.10;99.90;;;-144.05;54.01;56833.97;5054467;28;20040;-79
2023/05/28 06:01:00;;;;;;;15.38;9.75;;;15.30;99.90;;;-144.05;53.37;56857.34;5069780;28;20048;-79
2023/05/28 06:03:27;;;;;;;19.63;9.55;;;15.50;99.90;;;-144.05;52.09;56833.97;5069505;28;20453;-81
2023/05/28 06:05:53;;;;;;;13.68;9.45;;;15.60;99.90;;;-144.05;51.50;56857.34;5054549;28;20470;-80
2023/05/28 06:08:19;;;;;;;13.80;8.40;;;15.80;99.90;;;-144.05;51.23;56848.84;5069594;28;20482;-81
2023/05/28 06:10:47;;;;;;;15.48;9.00;;;16.00;99.90;;;-144.05;51.10;56846.72;5069722;28;20036;-80
2023/05/28 06:13:14;;;;;;;16.60;8.05;;;16.20;99.90;;;-144.05;50.15;56850.97;5069712;28;20122;-81
2023/05/28 06:15:41;;;;;;;12.88;7.15;;;16.50;99.90;;;-144.05;49.17;56863.69;5054523;28;20498;-79
2023/05/28 06:18:07;;;;;;;11.60;6.90;;;16.60;99.90;;;-144.05;48.08;56827.59;5054589;28;20061;-81
2023/05/28 06:20:33;;;;;;;10.35;7.50;;;16.70;99.90;;;-144.05;47.69;56872.19;5054306;28;20040;-81
2023/05/28 06:22:59;;;;;;;12.82;7.32;;;16.80;99.90;;;-144.05;47.51;56846.72;5069312;28;20032;-79
2023/05/28 06:25:25;;;;;;;13.43;6.07;;;16.90;99.90;;;-144.05;47.09;56859.47;5054063;28;20057;-79
2023/05/28 06:27:51;;;;;;;13.00;6.50;;;17.00;99.90;;;-144.05;46.55;56840.34;5053660;28;20075;-79
2023/05/28 06:30:17;;;;;;;12.10;6.53;;;17.20;99.90;;;-144.05;46.19;56859.47;5068795;28;20033;-78
2023/05/28 06:32:43;;;;;;;15.13;7.00;;;17.40;99.90;;;-144.05;45.50;56859.47;5053738;28;20071;-79
2023/05/28 06:35:09;;;;;;;12.82;6.65;;;17.60;99.90;;;-144.05;44.54;56865.81;5052723;28;20033;-80
2023/05/28 06:37:35;;;;;;;15.85;7.20;;;17.60;99.90;;;-144.05;43.88;56872.19;5068553;28;20171;-80
2023/05/28 06:40:01;;;;;;;10.38;5.75;;;17.80;99.90;;;-144.05;43.44;56840.34;5053175;28;20037;-80
2023/05/28 06:42:27;;;;;;;12.30;6.55;;;18.10;99.90;;;-144.05;42.95;56861.56;5081747;28;20032;-81
2023/05/28 06:44:52;;;;;;;12.32;6.20;;;18.00;99.90;;;-144.05;42.05;56874.31;5071881;28;20040;-82
2023/05/28 06:47:18;;;;;;;10.88;6.13;;;18.20;99.90;;;-144.05;42.00;56872.19;5071250;28;20520;-80
2023/05/28 06:49:44;;;;;;;10.93;6.35;;;18.20;99.90;;;-144.05;40.64;56872.19;5053766;28;20036;-82
2023/05/28 06:52:10;;;;;;;12.35;6.82;;;18.60;99.90;;;-144.05;40.21;56846.72;5069148;28;20024;-81
2023/05/28 06:54:36;;;;;;;10.93;6.75;;;18.80;99.90;;;-144.05;40.36;56859.47;5054087;28;20561;-79
2023/05/28 06:57:02;;;;;;;10.20;5.70;;;18.80;99.90;;;-144.05;40.07;56867.94;5053772;28;20075;-80
2023/05/28 06:59:28;;;;;;;14.30;6.57;;;19.10;99.90;;;-144.05;39.38;56878.56;5053426;28;20063;-81
2023/05/28 07:01:54;;;;;;;11.60;6.30;;;19.20;99.90;;;-144.05;40.47;56872.19;5053504;28;20081;-80
2023/05/28 07:04:20;;;;;;;12.40;5.72;;;19.30;99.90;;;-144.05;39.93;56867.94;5053729;28;20040;-80
2023/05/28 07:06:46;;;;;;;11.23;5.90;;;19.40;99.90;;;-144.05;39.03;56897.69;5068765;28;20468;-80
2023/05/28 07:09:12;;;;;;;10.15;6.55;;;19.60;99.90;;;-144.05;38.70;56876.44;5053559;28;20139;-79
2023/05/28 07:11:38;;;;;;;12.25;5.97;;;19.30;99.90;;;-144.05;38.98;56906.19;5053358;28;20032;-80
2023/05/28 07:14:03;;;;;;;11.10;7.00;;;19.10;99.90;;;-144.05;38.85;56884.94;5052987;28;20556;-79
2023/05/28 07:16:30;;;;;;;12.13;5.80;;;19.00;99.90;;;-144.05;39.46;56872.19;5053204;28;20029;-80
2023/05/28 07:18:56;;;;;;;9.13;5.63;;;19.00;99.90;;;-144.05;38.89;56904.06;5052950;28;20024;-80
2023/05/28 07:21:22;;;;;;;9.90;4.95;;;19.10;99.90;;;-144.05;38.03;56884.94;5053447;28;20134;-80
2023/05/28 07:23:48;;;;;;;10.63;4.68;;;19.30;99.90;;;-144.05;38.26;56906.19;5068654;28;20033;-79
2023/05/28 07:26:13;;;;;;;16.60;5.82;;;19.30;99.90;;;-144.05;38.18;56910.44;5068502;28;20174;-79
2023/05/28 07:28:39;;;;;;;13.80;4.88;;;19.60;99.90;;;-144.05;37.39;56889.19;5068048;28;20063;-79
2023/05/28 07:31:06;;;;;;;10.15;5.00;;;19.80;99.90;;;-144.05;37.15;56906.19;5052962;28;20041;-78
2023/05/28 07:33:31;;;;;;;9.82;4.60;;;20.00;99.90;;;-144.05;36.60;56904.06;5052993;28;20111;-79
2023/05/28 07:35:57;;;;;;;11.00;4.82;;;20.30;99.90;;;-144.05;36.37;56910.44;5052895;28;20052;-78
2023/05/28 07:38:23;;;;;;;8.88;4.78;;;20.50;99.90;;;-144.05;37.11;56910.44;5052718;28;20439;-79
2023/05/28 07:40:50;;;;;;;9.07;4.80;;;20.80;99.90;;;-144.05;36.25;56940.16;5052492;28;20083;-79
2023/05/28 07:43:16;;;;;;;9.38;4.72;;;21.20;99.90;;;-144.05;35.65;56918.94;5053186;28;20104;-79
2023/05/28 07:45:42;;;;;;;11.52;4.68;;;20.90;99.90;;;-144.05;36.30;56929.53;5069604;28;20064;-80
2023/05/28 07:48:08;;;;;;;8.90;5.00;;;20.80;99.90;;;-144.05;36.09;56884.94;5053096;28;20455;-82
2023/05/28 07:50:34;;;;;;;11.90;4.93;;;20.70;99.90;;;-144.05;35.97;56891.31;5053905;28;20076;-81
2023/05/28 07:53:01;;;;;;;11.15;4.68;;;20.80;99.90;;;-144.05;35.28;56921.06;5069279;28;20496;-80
2023/05/28 07:55:27;;;;;;;7.03;4.28;;;20.90;99.90;;;-144.05;34.91;56880.69;5053880;28;20052;-81
2023/05/28 07:57:53;;;;;;;8.82;4.70;;;20.90;99.70;;;-144.05;35.35;56906.19;5054779;28;20025;-79
2023/05/28 08:00:19;;;;;;;9.43;4.60;;;21.30;99.80;;;-144.05;34.66;56908.31;5056770;28;20029;-81
2023/05/28 08:02:45;;;;;;;9.73;4.60;;;21.40;98.90;;;-144.05;34.29;56929.53;5064782;28;20056;-80
2023/05/28 08:05:11;;;;;;;10.65;4.72;;;21.60;97.90;;;-144.05;34.96;56923.19;5070498;28;20032;-80
2023/05/28 08:07:37;;;;;;;8.85;4.32;;;21.60;98.90;;;-144.05;34.13;56931.66;5068347;28;20029;-80
2023/05/28 08:10:04;;;;;;;10.73;4.03;;;21.60;96.70;;;-144.05;34.05;56895.56;5052635;28;20502;-79
2023/05/28 08:12:30;;;;;;;7.93;4.30;;;21.60;96.70;;;-144.05;33.91;56938.03;5069947;28;20033;-81
2023/05/28 08:14:56;;;;;;;10.75;4.70;;;21.60;96.60;;;-144.05;33.50;56916.81;5052008;28;20401;-79
2023/05/28 08:17:23;;;;;;;8.43;4.85;;;21.70;95.10;;;-144.05;34.07;56935.91;5052341;28;20033;-77
2023/05/28 08:19:50;;;;;;;12.35;5.15;;;21.90;96.30;;;-144.05;33.20;56927.41;5052333;28;20033;-80
2023/05/28 08:22:16;;;;;;;10.85;4.00;;;21.90;95.00;;;-144.05;33.53;56933.78;5061169;28;20052;-79
2023/05/28 08:24:42;;;;;;;8.38;4.28;;;21.90;94.70;;;-144.05;34.24;56944.41;5057698;28;20051;-81
2023/05/28 08:27:08;;;;;;;10.48;4.38;;;21.70;95.20;;;-144.05;33.68;56935.91;5054195;28;20033;-81
2023/05/28 08:29:33;;;;;;;8.25;4.40;;;21.80;94.00;;;-144.05;33.49;56908.31;5067934;28;20124;-80
2023/05/28 08:32:00;;;;;;;7.80;4.05;;;22.00;93.90;;;-144.05;33.46;56946.53;5052029;28;20524;-80
2023/05/28 08:34:26;;;;;;;10.38;4.82;;;22.30;93.80;;;-144.05;33.37;56969.91;5052196;28;20028;-80
2023/05/28 08:36:52;;;;;;;8.23;4.28;;;22.60;93.80;;;-144.05;33.35;56967.78;5051841;28;20025;-79
2023/05/28 08:39:18;;;;;;;9.00;4.22;;;23.10;93.80;;;-144.05;32.26;56959.28;5067755;28;20064;-80
2023/05/28 08:41:45;;;;;;;9.30;4.50;;;23.20;91.60;;;-144.05;31.83;56965.66;5051920;28;20040;-81
2023/05/28 08:44:10;;;;;;;9.18;4.55;;;23.20;90.50;;;-144.05;32.56;56961.41;5052090;28;20175;-78
2023/05/28 08:46:37;;;;;;;8.27;4.05;;;23.20;91.00;;;-144.05;32.38;56982.66;5052020;28;20084;-79
2023/05/28 08:49:03;;;;;;;9.65;4.60;;;23.30;91.30;;;-144.05;31.96;56965.66;5051836;28;20029;-81
2023/05/28 08:51:36;;;;;;;7.97;4.38;;;23.70;90.70;;;-144.05;31.41;56967.78;5051924;28;20033;-80
2023/05/28 08:54:04;;;;;;;6.30;3.22;;;23.70;88.40;;;-144.05;31.69;56984.78;5051929;28;20029;-80
2023/05/28 08:56:30;;;;;;;8.85;4.00;;;23.70;89.60;;;-144.05;31.23;56982.66;5052179;28;20029;-81
2023/05/28 08:58:58;;;;;;;10.00;4.00;;;24.10;85.70;;;-144.05;31.05;56989.00;5053385;28;20060;-81
2023/05/28 09:01:23;;;;;;;8.88;4.50;;;24.00;83.80;;;-144.05;30.70;56999.63;5070801;28;20064;-80
2023/05/28 09:03:50;;;;;;;9.30;4.07;;;24.10;83.80;;;-144.05;30.67;56991.13;5055842;28;20079;-81
2023/05/28 09:06:16;;;;;;;10.43;4.55;;;24.00;83.70;;;-144.05;30.43;56993.25;5055459;28;20029;-81
2023/05/28 09:08:45;;;;;;;9.75;3.88;;;24.30;83.00;;;-144.05;31.40;56991.13;5056882;28;20418;-82
2023/05/28 09:11:14;;;;;;;8.90;3.88;;;23.90;83.80;;;-144.05;30.76;56995.38;5057699;28;20118;-81
2023/05/28 09:13:46;;;;;;;7.22;3.70;;;24.00;81.80;;;-144.05;31.01;56989.00;5072934;28;20088;-81
2023/05/28 09:16:24;;;;;;;8.55;3.47;;;24.10;82.30;;;-144.05;30.64;57001.75;5078936;28;20026;-80
2023/05/28 09:19:02;;;;;;;6.95;3.65;;;24.20;81.70;;;-144.05;30.67;57033.63;5060505;28;20040;-81
2023/05/28 09:21:28;;;;;;;6.35;3.60;;;24.60;82.60;;;-144.05;29.42;57052.75;5068106;28;20036;-80
2023/05/28 09:23:54;;;;;;;8.98;4.10;;;24.80;76.90;;;-144.05;30.53;57006.00;5055683;28;20077;-78
2023/05/28 09:26:20;;;;;;;12.63;3.92;;;24.60;79.90;;;-144.05;30.68;56991.13;5070364;28;20029;-80
2023/05/28 09:28:49;;;;;;;10.85;4.47;;;24.40;78.40;;;-144.05;29.95;57001.75;5070128;28;20104;-80
2023/05/28 09:31:15;;;;;;;8.10;3.83;;;24.30;76.90;;;-144.05;31.13;57006.00;5070289;28;20486;-82
2023/05/28 09:33:47;;;;;;;8.50;3.63;;;24.40;80.70;;;-144.05;30.82;57020.88;5078151;28;20055;-80
2023/05/28 09:36:17;;;;;;;7.45;3.55;;;24.50;79.00;;;-144.05;29.77;57044.25;5062668;28;20025;-80
2023/05/28 09:38:44;;;;;;;10.20;3.55;;;24.70;75.90;;;-144.05;29.94;57016.63;5055695;28;20104;-79
2023/05/28 09:41:34;;;;;;;6.40;3.20;;;25.00;77.60;;;-144.05;28.96;57042.13;5055591;28;20078;-80
2023/05/28 09:44:04;;;;;;;9.57;3.40;;;25.00;73.70;;;-144.05;29.72;57025.13;5055552;28;20028;-80
2023/05/28 09:46:35;;;;;;;7.60;3.20;;;24.80;75.20;;;-144.05;29.80;57037.88;5055051;28;20041;-81
2023/05/28 09:49:03;;;;;;;7.90;3.38;;;25.10;75.90;;;-144.05;28.75;57044.25;5070437;28;20040;-80
2023/05/28 09:51:32;;;;;;;8.02;3.10;;;25.40;73.00;;;-144.05;29.58;57033.63;5055320;28;20037;-81
2023/05/28 09:54:04;;;;;;;9.55;3.30;;;25.40;75.30;;;-144.05;29.03;57020.88;5070471;28;20033;-80
2023/05/28 09:56:33;;;;;;;8.18;3.30;;;25.10;72.50;;;-144.05;29.24;57016.63;5100563;22;20397;-83
2023/05/28 09:59:03;;;;;;;7.03;3.28;;;24.90;71.40;;;-144.05;29.46;57023.00;5094992;28;20481;-82
2023/05/28 10:01:47;;;;;;;9.38;3.20;;;24.90;73.10;;;-144.05;28.57;57044.25;5077256;28;20035;-80